Time;durP1;ratioP1;P1;durP2;ratioP2;P2;SDS_P1;SDS_P2;PMS_P1;PMS_P2;Temp;Humidity;BMP_temperature;BMP_pressure;BME280_temperature;BME280_humidity;BME280_pressure;Samples;Min_cycle;Max_cycle;Signal;HPM_P1;HPM_P2
2022/01/09 00:00:36;;;;;;;17.95;12.02;;;4.20;99.90;;;;;;5048023;28;20060;-86
2022/01/09 00:03:02;;;;;;;16.83;11.63;;;4.20;99.90;;;;;;4999466;28;20137;-86
2022/01/09 00:05:28;;;;;;;19.33;11.88;;;4.70;99.90;;;;;;5011417;28;20056;-86
2022/01/09 00:07:53;;;;;;;16.50;11.80;;;4.70;99.90;;;;;;5014927;28;20471;-85
2022/01/09 00:10:19;;;;;;;19.27;12.15;;;4.20;99.90;;;;;;5011560;28;20049;-85
2022/01/09 00:12:46;;;;;;;19.33;11.43;;;4.30;99.90;;;;;;5022332;28;20084;-87
2022/01/09 00:15:12;;;;;;;15.90;10.90;;;4.20;99.90;;;;;;5012490;28;20380;-86
2022/01/09 00:17:38;;;;;;;17.02;11.35;;;4.20;99.90;;;;;;5016278;28;20049;-84
2022/01/09 00:20:06;;;;;;;17.30;11.77;;;5.00;99.90;;;;;;5027550;28;20034;-87
2022/01/09 00:25:10;;;;;;;17.02;12.18;;;4.20;99.90;;;;;;5041156;28;20350;-83
2022/01/09 00:27:36;;;;;;;19.05;12.35;;;4.20;99.90;;;;;;5004592;28;20398;-88
2022/01/09 00:30:07;;;;;;;18.17;12.35;;;4.20;99.90;;;;;;5020631;28;20168;-88
2022/01/09 00:32:33;;;;;;;17.07;11.50;;;4.30;99.90;;;;;;5003709;28;20046;-86
2022/01/09 00:34:58;;;;;;;19.38;11.68;;;4.20;99.90;;;;;;5016024;28;20304;-91
2022/01/09 00:37:24;;;;;;;19.73;11.40;;;4.20;99.90;;;;;;5009860;28;20037;-90
2022/01/09 00:39:51;;;;;;;19.20;12.60;;;4.20;99.90;;;;;;5010524;28;20087;-89
2022/01/09 00:42:18;;;;;;;19.38;12.38;;;4.20;99.90;;;;;;5023734;28;20105;-90
2022/01/09 00:44:43;;;;;;;17.60;10.93;;;4.20;99.90;;;;;;5019768;28;20045;-90
2022/01/09 00:47:09;;;;;;;17.35;11.63;;;4.20;99.90;;;;;;5006598;28;20044;-90
2022/01/09 00:49:34;;;;;;;18.63;12.57;;;4.20;99.90;;;;;;5027657;28;20275;-88
2022/01/09 00:52:00;;;;;;;19.20;12.85;;;4.20;99.90;;;;;;5017801;28;20119;-90
2022/01/09 00:54:26;;;;;;;17.48;11.75;;;4.20;99.90;;;;;;5004563;28;20049;-89
2022/01/09 00:56:51;;;;;;;19.52;12.60;;;4.20;99.90;;;;;;5022666;28;20091;-91
2022/01/09 00:59:17;;;;;;;21.00;12.68;;;4.20;99.90;;;;;;5001813;28;20050;-90
2022/01/09 01:01:43;;;;;;;21.50;13.35;;;4.20;99.90;;;;;;5017979;28;20041;-89
2022/01/09 01:04:09;;;;;;;19.38;13.32;;;4.20;99.90;;;;;;5016930;28;20034;-90
2022/01/09 01:06:40;;;;;;;19.05;13.00;;;4.20;99.90;;;;;;5012648;28;20048;-89
2022/01/09 01:09:06;;;;;;;17.40;11.85;;;4.20;99.90;;;;;;5026288;28;20046;-88
2022/01/09 01:11:32;;;;;;;18.55;13.38;;;4.20;99.90;;;;;;5018077;28;20034;-90
2022/01/09 01:13:58;;;;;;;20.25;13.35;;;4.20;99.90;;;;;;5014339;28;20061;-91
2022/01/09 01:16:23;;;;;;;18.88;13.05;;;4.20;99.90;;;;;;5047928;28;20045;-89
2022/01/09 01:18:49;;;;;;;20.48;13.68;;;4.40;99.90;;;;;;5013788;28;20116;-89
2022/01/09 01:21:15;;;;;;;23.40;13.77;;;4.20;99.90;;;;;;5023952;28;20047;-91
2022/01/09 01:23:41;;;;;;;19.55;12.98;;;4.20;99.90;;;;;;5014491;28;20056;-91
2022/01/09 01:26:07;;;;;;;18.33;12.73;;;4.20;99.90;;;;;;5031964;28;20122;-92
2022/01/09 01:28:33;;;;;;;21.02;13.52;;;4.20;99.90;;;;;;5014231;28;20116;-91
2022/01/09 01:30:59;;;;;;;21.63;13.43;;;4.20;99.90;;;;;;5030542;28;20552;-91
2022/01/09 01:33:26;;;;;;;19.33;12.65;;;4.20;99.90;;;;;;5014748;28;20041;-91
2022/01/09 01:35:52;;;;;;;22.35;13.90;;;4.20;99.90;;;;;;5017034;28;20521;-91
2022/01/09 01:38:18;;;;;;;21.40;13.10;;;4.20;99.90;;;;;;5022133;28;20049;-89
2022/01/09 01:40:45;;;;;;;23.85;14.18;;;4.20;99.90;;;;;;5010404;28;20069;-89
2022/01/09 01:43:10;;;;;;;20.52;13.10;;;4.20;99.90;;;;;;5025377;28;20071;-90
2022/01/09 01:45:36;;;;;;;18.40;12.60;;;4.20;99.90;;;;;;4996038;28;20376;-90
2022/01/09 01:48:06;;;;;;;18.13;12.93;;;4.20;99.90;;;;;;5022699;28;20048;-88
2022/01/09 01:50:37;;;;;;;18.27;13.02;;;4.20;99.90;;;;;;5063200;28;20045;-89
2022/01/09 01:53:12;;;;;;;23.45;13.27;;;4.20;99.90;;;;;;5029680;28;20120;-90
2022/01/09 01:55:40;;;;;;;19.77;13.18;;;4.20;99.90;;;;;;5013164;28;20087;-89
2022/01/09 01:58:07;;;;;;;24.70;14.57;;;4.20;99.90;;;;;;5010064;28;20121;-90
2022/01/09 02:00:33;;;;;;;18.38;12.98;;;4.20;99.90;;;;;;5015241;28;20049;-90
2022/01/09 02:02:59;;;;;;;24.60;14.07;;;4.20;99.90;;;;;;5028514;28;20073;-90
2022/01/09 02:05:25;;;;;;;21.73;13.70;;;4.30;99.90;;;;;;5012990;28;20096;-90
2022/01/09 02:07:52;;;;;;;20.75;14.27;;;4.30;99.90;;;;;;5013201;28;20132;-92
2022/01/09 02:10:18;;;;;;;25.80;13.82;;;4.90;99.90;;;;;;5044406;28;20569;-91
2022/01/09 02:12:44;;;;;;;19.95;12.95;;;4.30;99.90;;;;;;5012651;28;20406;-91
2022/01/09 02:15:25;;;;;;;21.58;12.57;;;4.30;99.90;;;;;;5004158;28;20121;-89
2022/01/09 02:17:51;;;;;;;17.98;12.07;;;4.30;99.90;;;;;;5009248;28;20379;-90
2022/01/09 02:20:16;;;;;;;21.92;12.18;;;4.40;99.90;;;;;;5039041;28;20056;-90
2022/01/09 02:22:42;;;;;;;17.75;12.32;;;4.30;99.90;;;;;;5015698;28;20043;-89
2022/01/09 02:25:09;;;;;;;22.60;11.93;;;4.30;99.90;;;;;;5003068;28;20518;-89
2022/01/09 02:27:35;;;;;;;19.40;11.77;;;4.40;99.90;;;;;;5015479;28;20044;-90
2022/01/09 02:30:01;;;;;;;23.08;12.45;;;4.40;99.90;;;;;;5030769;28;20041;-89
2022/01/09 02:32:29;;;;;;;25.38;11.57;;;4.40;99.90;;;;;;5028697;28;20042;-89
2022/01/09 02:34:55;;;;;;;22.70;11.15;;;4.40;99.90;;;;;;5025100;28;20572;-89
2022/01/09 02:37:21;;;;;;;23.83;11.02;;;4.40;99.90;;;;;;5027328;28;20037;-88
2022/01/09 02:39:49;;;;;;;23.95;11.70;;;4.40;99.90;;;;;;5008534;28;20054;-88
2022/01/09 02:42:26;;;;;;;17.38;9.57;;;4.50;99.90;;;;;;5058951;28;20107;-87
2022/01/09 02:44:52;;;;;;;20.50;9.88;;;4.50;99.90;;;;;;5009937;28;20085;-87
2022/01/09 02:47:19;;;;;;;25.95;10.27;;;4.50;99.90;;;;;;5009500;28;20037;-86
2022/01/09 02:49:49;;;;;;;17.88;9.27;;;5.30;99.90;;;;;;5023173;28;20419;-86
2022/01/09 02:57:34;;;;;;;26.33;8.48;;;4.70;99.90;;;;;;5031112;28;20081;-90
2022/01/09 03:00:00;;;;;;;27.15;6.93;;;4.70;99.90;;;;;;5028962;28;20037;-92
2022/01/09 03:02:26;;;;;;;38.28;7.47;;;4.70;99.90;;;;;;5023024;28;20086;-90
2022/01/09 03:04:51;;;;;;;33.03;6.65;;;4.70;99.90;;;;;;5038479;28;20037;-89
2022/01/09 03:07:17;;;;;;;20.17;5.35;;;4.80;99.90;;;;;;5019400;28;20045;-88
2022/01/09 03:09:44;;;;;;;34.15;5.53;;;4.80;99.90;;;;;;5027662;28;20072;-89
2022/01/09 03:12:11;;;;;;;31.15;4.82;;;4.80;99.90;;;;;;5029718;28;20061;-88
2022/01/09 03:14:37;;;;;;;25.25;4.78;;;4.90;99.90;;;;;;5013401;28;20542;-88
2022/01/09 03:17:03;;;;;;;38.10;4.75;;;5.00;99.90;;;;;;5043587;28;20045;-87
2022/01/09 03:19:29;;;;;;;46.65;5.28;;;5.00;99.90;;;;;;5026308;28;20136;-86
2022/01/09 03:21:55;;;;;;;56.38;5.57;;;5.10;99.90;;;;;;5013073;28;20128;-86
2022/01/09 03:24:20;;;;;;;48.95;5.47;;;5.10;99.90;;;;;;5029295;28;20033;-88
2022/01/09 03:26:46;;;;;;;39.95;6.20;;;5.20;99.90;;;;;;5012564;28;20041;-87
2022/01/09 03:29:12;;;;;;;45.10;5.55;;;5.30;99.90;;;;;;5012148;28;20045;-87
2022/01/09 03:31:38;;;;;;;51.80;5.45;;;5.30;99.90;;;;;;5012561;28;20060;-84
2022/01/09 03:34:03;;;;;;;54.17;5.30;;;5.40;99.90;;;;;;5038483;28;20083;-88
2022/01/09 03:36:29;;;;;;;47.58;5.53;;;5.40;99.90;;;;;;5059095;28;20061;-86
2022/01/09 03:38:55;;;;;;;65.85;6.18;;;5.50;99.90;;;;;;5018258;28;20513;-87
2022/01/09 03:41:20;;;;;;;64.47;7.07;;;5.60;99.90;;;;;;5029742;28;20613;-87
2022/01/09 03:43:46;;;;;;;58.00;7.30;;;5.60;99.90;;;;;;5027165;28;20136;-86
2022/01/09 03:46:11;;;;;;;47.75;6.35;;;5.60;99.90;;;;;;5033179;28;20088;-87
2022/01/09 03:48:37;;;;;;;47.10;5.45;;;5.70;99.90;;;;;;5015871;28;20080;-83
2022/01/09 03:51:03;;;;;;;49.33;5.50;;;5.70;99.90;;;;;;5025984;28;20395;-84
2022/01/09 03:53:31;;;;;;;50.78;5.10;;;5.70;99.90;;;;;;5023910;28;20076;-84
2022/01/09 03:55:57;;;;;;;48.05;5.93;;;5.80;99.90;;;;;;5013280;28;20582;-84
2022/01/09 03:58:22;;;;;;;58.35;5.72;;;5.80;99.90;;;;;;5027430;28;20088;-85
2022/01/09 04:00:48;;;;;;;52.00;6.13;;;5.80;99.90;;;;;;5019005;28;20080;-83
2022/01/09 04:03:14;;;;;;;44.65;5.20;;;6.20;99.90;;;;;;5045456;28;20064;-83
2022/01/09 04:05:39;;;;;;;43.85;5.57;;;5.80;99.90;;;;;;5013539;28;20391;-84
2022/01/09 04:08:05;;;;;;;44.08;5.03;;;5.80;99.90;;;;;;5023976;28;20739;-83
2022/01/09 04:10:32;;;;;;;50.90;5.00;;;6.30;99.90;;;;;;5009625;28;20053;-83
2022/01/09 04:13:00;;;;;;;45.97;5.03;;;5.80;99.90;;;;;;5016131;28;20050;-81
2022/01/09 04:15:26;;;;;;;47.28;5.03;;;5.80;99.90;;;;;;5006099;28;20064;-83
2022/01/09 04:17:54;;;;;;;40.50;4.93;;;5.80;99.90;;;;;;5008225;28;20085;-82
2022/01/09 04:20:21;;;;;;;34.05;4.25;;;5.80;99.90;;;;;;5009566;28;20056;-83
2022/01/09 04:22:48;;;;;;;51.22;4.65;;;5.80;99.90;;;;;;5005109;28;20061;-81
2022/01/09 04:25:14;;;;;;;35.22;4.35;;;5.80;99.90;;;;;;5024406;28;20052;-83
2022/01/09 04:27:40;;;;;;;39.75;4.82;;;5.80;99.90;;;;;;5013246;28;20060;-82
2022/01/09 04:30:07;;;;;;;41.17;5.18;;;5.80;99.90;;;;;;5005353;28;20053;-81
2022/01/09 04:32:33;;;;;;;41.90;5.70;;;5.80;99.90;;;;;;5002868;28;20143;-83
2022/01/09 04:34:58;;;;;;;38.83;4.93;;;5.80;99.90;;;;;;5005850;28;20088;-82
2022/01/09 04:37:25;;;;;;;49.03;7.05;;;5.80;99.90;;;;;;5025995;28;20525;-82
2022/01/09 04:39:52;;;;;;;40.88;6.10;;;5.80;99.90;;;;;;5046705;28;20064;-81
2022/01/09 04:42:18;;;;;;;40.78;5.72;;;5.80;99.90;;;;;;5018934;28;20049;-83
2022/01/09 04:44:44;;;;;;;38.35;5.63;;;5.80;99.90;;;;;;5029433;28;20060;-83
2022/01/09 04:47:14;;;;;;;45.90;4.88;;;5.80;99.90;;;;;;5010755;28;20038;-81
2022/01/09 04:49:42;;;;;;;47.20;5.07;;;5.80;99.90;;;;;;5016590;28;20133;-83
2022/01/09 04:52:12;;;;;;;35.55;5.85;;;5.80;99.90;;;;;;5026756;28;20052;-80
2022/01/09 04:54:38;;;;;;;41.22;5.93;;;5.80;99.90;;;;;;5059067;28;20049;-83
2022/01/09 04:57:04;;;;;;;34.30;4.95;;;5.80;99.90;;;;;;5024763;28;20521;-82
2022/01/09 04:59:30;;;;;;;28.55;4.53;;;5.90;99.90;;;;;;5025156;28;20050;-81
2022/01/09 05:01:56;;;;;;;31.58;4.63;;;5.80;99.90;;;;;;5031883;28;20057;-81
2022/01/09 05:04:22;;;;;;;48.15;5.20;;;5.80;99.90;;;;;;5026118;28;20045;-83
2022/01/09 05:06:47;;;;;;;37.38;3.85;;;5.80;99.90;;;;;;5003226;28;20041;-83
2022/01/09 05:09:13;;;;;;;31.67;4.00;;;5.80;99.90;;;;;;5017149;28;20034;-84
2022/01/09 05:11:39;;;;;;;43.45;4.38;;;5.80;99.90;;;;;;4999069;28;20410;-82
2022/01/09 05:14:04;;;;;;;29.48;3.78;;;5.70;99.90;;;;;;4971095;28;1207048;-81
2022/01/09 05:16:30;;;;;;;35.33;4.43;;;5.80;99.90;;;;;;5020208;28;20060;-80
2022/01/09 05:19:04;;;;;;;43.30;4.80;;;5.70;99.90;;;;;;4994679;28;20660;-83
2022/01/09 05:21:30;;;;;;;24.45;3.33;;;5.70;99.90;;;;;;5007230;28;20409;-82
2022/01/09 05:23:56;;;;;;;26.63;4.20;;;5.70;99.90;;;;;;5012661;28;20073;-81
2022/01/09 05:26:22;;;;;;;33.30;4.00;;;6.10;99.90;;;;;;4990491;28;20128;-82
2022/01/09 05:28:48;;;;;;;33.85;5.07;;;5.70;99.90;;;;;;4992287;28;20049;-81
2022/01/09 05:31:14;;;;;;;28.45;4.82;;;5.60;99.90;;;;;;5008956;28;20041;-78
2022/01/09 05:33:39;;;;;;;26.55;3.97;;;5.60;99.90;;;;;;5009586;28;20052;-82
2022/01/09 05:36:05;;;;;;;27.30;3.58;;;5.60;99.90;;;;;;5012108;28;20507;-82
2022/01/09 05:38:31;;;;;;;29.50;4.10;;;5.60;99.90;;;;;;5006068;28;20057;-82
2022/01/09 05:40:57;;;;;;;38.47;3.40;;;5.60;99.90;;;;;;4993849;28;20055;-82
2022/01/09 05:43:25;;;;;;;26.42;4.20;;;5.60;99.90;;;;;;4992922;28;20101;-78
2022/01/09 05:45:51;;;;;;;27.00;3.00;;;5.60;99.90;;;;;;5008492;28;20041;-79
2022/01/09 05:48:17;;;;;;;25.73;3.45;;;5.50;99.90;;;;;;4993856;28;20560;-79
2022/01/09 05:50:43;;;;;;;25.90;3.85;;;5.60;99.90;;;;;;4994618;28;20045;-81
2022/01/09 05:53:09;;;;;;;31.58;4.15;;;5.50;99.90;;;;;;4991420;28;20079;-78
2022/01/09 05:55:35;;;;;;;29.00;4.28;;;5.50;99.90;;;;;;5043136;28;20153;-80
2022/01/09 05:58:01;;;;;;;31.73;3.88;;;5.50;99.90;;;;;;4992304;28;20124;-82
2022/01/09 06:00:27;;;;;;;35.92;3.97;;;5.50;99.90;;;;;;5007311;28;20054;-81
2022/01/09 06:02:53;;;;;;;29.92;4.07;;;5.50;99.90;;;;;;5009187;28;20469;-82
2022/01/09 06:05:19;;;;;;;27.15;3.20;;;5.80;99.90;;;;;;4995998;28;20037;-78
2022/01/09 06:07:44;;;;;;;22.98;3.17;;;5.50;99.90;;;;;;5007798;28;20046;-81
2022/01/09 06:10:11;;;;;;;20.92;3.35;;;5.50;99.90;;;;;;5005480;28;20041;-82
2022/01/09 06:12:37;;;;;;;25.17;3.40;;;5.50;99.90;;;;;;4993238;28;20141;-83
2022/01/09 06:15:04;;;;;;;18.10;3.47;;;5.50;99.90;;;;;;5037757;28;20048;-80
2022/01/09 06:17:35;;;;;;;30.50;3.40;;;5.40;99.90;;;;;;5010557;28;20049;-81
2022/01/09 06:20:01;;;;;;;23.92;3.25;;;5.40;99.90;;;;;;5029795;28;20052;-81
2022/01/09 06:22:26;;;;;;;21.17;2.63;;;5.40;99.90;;;;;;5007895;28;20111;-79
2022/01/09 06:24:52;;;;;;;20.88;2.90;;;5.50;99.90;;;;;;5012717;28;20103;-82
2022/01/09 06:27:18;;;;;;;27.10;2.88;;;5.40;99.90;;;;;;5026189;28;20037;-79
2022/01/09 06:29:44;;;;;;;23.00;2.55;;;5.40;99.90;;;;;;5010304;28;20033;-81
2022/01/09 06:32:10;;;;;;;25.88;3.25;;;5.40;99.90;;;;;;5012149;28;20095;-81
2022/01/09 06:34:36;;;;;;;18.27;2.53;;;5.30;99.90;;;;;;5023724;28;20037;-81
2022/01/09 06:37:02;;;;;;;18.05;2.58;;;5.30;99.90;;;;;;5009950;28;20041;-80
2022/01/09 06:39:28;;;;;;;16.58;2.55;;;5.30;99.90;;;;;;5025655;28;20076;-81
2022/01/09 06:41:53;;;;;;;24.88;4.32;;;5.30;99.90;;;;;;5023719;28;20584;-81
2022/01/09 06:44:19;;;;;;;25.20;3.33;;;5.30;99.90;;;;;;5011898;28;20072;-81
2022/01/09 06:46:45;;;;;;;24.55;2.92;;;5.30;99.90;;;;;;5028092;28;20033;-81
2022/01/09 06:49:11;;;;;;;25.98;3.13;;;5.30;99.90;;;;;;5022383;28;20053;-81
2022/01/09 06:51:36;;;;;;;21.25;2.50;;;5.30;99.90;;;;;;5012692;28;20041;-82
2022/01/09 06:54:03;;;;;;;27.48;2.85;;;5.30;99.90;;;;;;5028372;28;20520;-81
2022/01/09 06:56:28;;;;;;;20.98;4.03;;;5.20;99.90;;;;;;5021211;28;20116;-81
2022/01/09 06:58:54;;;;;;;19.40;3.00;;;5.20;99.90;;;;;;5012159;28;20458;-80
2022/01/09 07:01:20;;;;;;;28.35;3.03;;;5.20;99.90;;;;;;5027327;28;20044;-81
2022/01/09 07:03:46;;;;;;;23.23;3.80;;;5.20;99.90;;;;;;5007525;28;20041;-81
2022/01/09 07:06:11;;;;;;;18.23;3.47;;;5.20;99.90;;;;;;5012404;28;20029;-80
2022/01/09 07:08:38;;;;;;;22.10;3.30;;;5.20;99.90;;;;;;5027425;28;20053;-80
2022/01/09 07:11:04;;;;;;;25.98;3.08;;;5.20;99.90;;;;;;5015997;28;20390;-80
2022/01/09 07:13:31;;;;;;;27.83;2.67;;;5.20;99.90;;;;;;5016425;28;20098;-80
2022/01/09 07:15:57;;;;;;;21.00;2.78;;;5.30;99.90;;;;;;5009980;28;20049;-80
2022/01/09 07:18:23;;;;;;;20.33;3.10;;;5.30;99.90;;;;;;5010955;28;20045;-79
2022/01/09 07:20:48;;;;;;;24.00;2.95;;;5.20;99.90;;;;;;5005216;28;20044;-80
2022/01/09 07:23:14;;;;;;;22.42;3.10;;;5.20;99.90;;;;;;5004066;28;20049;-80
2022/01/09 07:25:40;;;;;;;23.08;3.22;;;5.40;99.90;;;;;;5015116;28;20067;-79
2022/01/09 07:28:05;;;;;;;32.65;3.60;;;5.20;99.90;;;;;;5021597;28;20037;-80
2022/01/09 07:30:31;;;;;;;25.38;2.65;;;5.20;99.90;;;;;;5010027;28;20418;-77
2022/01/09 07:32:58;;;;;;;22.95;3.13;;;5.20;99.90;;;;;;5025365;28;20048;-81
2022/01/09 07:35:23;;;;;;;21.63;2.58;;;5.10;99.90;;;;;;5011991;28;20056;-80
2022/01/09 07:37:49;;;;;;;20.13;2.58;;;5.10;99.90;;;;;;5015938;28;20049;-79
2022/01/09 07:40:16;;;;;;;23.15;2.95;;;5.10;99.90;;;;;;5030019;28;20060;-79
2022/01/09 07:42:42;;;;;;;21.92;2.90;;;5.10;99.90;;;;;;5006401;28;20102;-80
2022/01/09 07:45:08;;;;;;;18.17;2.72;;;5.10;99.90;;;;;;5007990;28;20467;-79
2022/01/09 07:47:35;;;;;;;26.25;3.28;;;5.00;99.90;;;;;;5027862;28;20041;-79
2022/01/09 07:50:01;;;;;;;22.67;2.15;;;5.00;99.90;;;;;;5016558;28;20131;-79
2022/01/09 07:52:27;;;;;;;18.45;2.50;;;5.00;99.90;;;;;;5021301;28;20529;-79
2022/01/09 07:54:53;;;;;;;14.68;2.47;;;5.00;99.90;;;;;;5014628;28;20041;-79
2022/01/09 07:57:18;;;;;;;20.52;2.50;;;4.90;99.90;;;;;;5031391;28;20071;-79
2022/01/09 07:59:44;;;;;;;15.93;2.10;;;4.90;99.90;;;;;;5029596;28;20060;-79
2022/01/09 08:02:10;;;;;;;14.82;2.08;;;4.90;99.90;;;;;;5029895;28;20041;-79
2022/01/09 08:04:36;;;;;;;15.55;1.92;;;4.90;99.90;;;;;;5031611;28;20041;-78
2022/01/09 08:07:02;;;;;;;14.68;2.10;;;4.90;99.90;;;;;;5008075;28;20469;-78
2022/01/09 08:09:28;;;;;;;18.42;1.95;;;4.90;99.90;;;;;;5026670;28;20466;-79
2022/01/09 08:11:54;;;;;;;12.57;1.83;;;4.90;99.90;;;;;;5025334;28;20088;-80
2022/01/09 08:14:19;;;;;;;17.15;2.15;;;4.90;99.90;;;;;;5022406;28;20570;-78
2022/01/09 08:16:45;;;;;;;15.73;2.05;;;4.90;99.90;;;;;;5031915;28;20075;-78
2022/01/09 08:19:11;;;;;;;12.55;1.73;;;4.90;99.90;;;;;;5011274;28;20045;-76
2022/01/09 08:21:36;;;;;;;17.60;2.15;;;4.90;99.90;;;;;;5011721;28;20140;-78
2022/01/09 08:24:02;;;;;;;19.33;2.50;;;4.90;99.90;;;;;;5027004;28;20039;-77
2022/01/09 08:26:28;;;;;;;15.40;2.40;;;4.90;99.90;;;;;;5008113;28;20919;-78
2022/01/09 08:28:54;;;;;;;14.75;2.60;;;4.90;99.90;;;;;;5009742;28;20140;-78
2022/01/09 08:31:21;;;;;;;12.40;1.73;;;4.90;99.90;;;;;;5030528;28;20056;-79
2022/01/09 08:33:46;;;;;;;16.17;1.65;;;4.90;99.90;;;;;;5027333;28;20120;-78
2022/01/09 08:36:13;;;;;;;14.13;2.60;;;4.90;99.90;;;;;;5011666;28;20127;-78
2022/01/09 08:38:40;;;;;;;14.38;2.00;;;5.00;99.90;;;;;;5029579;28;20052;-79
2022/01/09 08:41:06;;;;;;;17.50;2.05;;;4.90;99.90;;;;;;5017430;28;21681;-80
2022/01/09 08:43:31;;;;;;;14.90;2.13;;;4.90;99.90;;;;;;5008515;28;20045;-78
2022/01/09 08:45:58;;;;;;;23.95;2.97;;;4.90;99.90;;;;;;5016870;28;20160;-78
2022/01/09 08:48:24;;;;;;;21.60;2.83;;;4.90;99.90;;;;;;5036301;28;20060;-79
2022/01/09 08:50:50;;;;;;;15.98;2.17;;;4.90;99.90;;;;;;5008155;28;20052;-78
2022/01/09 08:53:16;;;;;;;17.65;2.13;;;5.00;99.90;;;;;;5029974;28;20087;-78
2022/01/09 08:55:42;;;;;;;21.73;2.15;;;5.00;99.90;;;;;;5007321;28;20044;-77
2022/01/09 08:58:07;;;;;;;13.40;2.28;;;5.00;99.90;;;;;;5039449;28;20562;-79
2022/01/09 09:00:33;;;;;;;18.77;2.92;;;5.00;99.90;;;;;;5026298;28;20055;-78
2022/01/09 09:02:59;;;;;;;23.30;2.97;;;5.00;99.90;;;;;;5005014;28;20045;-78
2022/01/09 09:05:24;;;;;;;17.23;2.75;;;5.00;99.90;;;;;;5012376;28;20045;-78
2022/01/09 09:07:50;;;;;;;14.35;2.25;;;5.10;99.90;;;;;;5000400;28;20132;-78
2022/01/09 09:10:16;;;;;;;15.00;2.60;;;5.10;99.90;;;;;;5016963;28;20036;-78
2022/01/09 09:12:41;;;;;;;17.42;2.80;;;5.10;99.90;;;;;;5018416;28;21251;-79
2022/01/09 09:15:08;;;;;;;17.27;2.65;;;5.10;99.90;;;;;;5008663;28;20386;-78
2022/01/09 09:17:34;;;;;;;16.45;2.38;;;5.20;99.90;;;;;;5012550;28;20049;-76
2022/01/09 09:20:00;;;;;;;13.63;1.90;;;5.20;99.90;;;;;;5007223;28;20064;-78
2022/01/09 09:22:26;;;;;;;18.25;2.58;;;5.20;99.90;;;;;;5013162;28;20183;-77
2022/01/09 09:24:52;;;;;;;17.15;1.92;;;5.20;99.90;;;;;;5017431;28;20049;-79
2022/01/09 09:27:19;;;;;;;12.77;1.98;;;5.50;99.90;;;;;;4999739;28;20589;-78
2022/01/09 09:29:46;;;;;;;16.70;2.00;;;5.30;99.90;;;;;;5034885;28;20049;-78
2022/01/09 09:32:13;;;;;;;12.35;1.70;;;5.30;99.90;;;;;;5016410;28;20071;-78
2022/01/09 09:34:39;;;;;;;19.20;1.92;;;5.30;99.90;;;;;;5001858;28;20099;-78
2022/01/09 09:37:06;;;;;;;11.77;1.33;;;5.30;99.90;;;;;;5019537;28;20656;-79
2022/01/09 09:39:32;;;;;;;14.57;1.80;;;5.30;99.90;;;;;;5003036;28;20523;-78
2022/01/09 09:41:59;;;;;;;18.00;1.83;;;5.30;99.90;;;;;;5013436;28;20080;-79
2022/01/09 09:44:25;;;;;;;19.50;2.33;;;5.30;99.90;;;;;;5007725;28;20057;-78
2022/01/09 09:46:53;;;;;;;18.27;2.30;;;5.30;99.90;;;;;;5051601;28;20049;-78
2022/01/09 09:49:19;;;;;;;11.18;2.63;;;5.30;99.90;;;;;;5001808;28;20045;-77
2022/01/09 09:51:45;;;;;;;10.43;1.90;;;5.30;99.90;;;;;;5014603;28;20052;-78
2022/01/09 09:54:11;;;;;;;9.93;1.73;;;5.30;99.90;;;;;;5012725;28;20056;-78
2022/01/09 09:56:37;;;;;;;10.80;1.85;;;5.30;99.90;;;;;;5011295;28;20041;-78
2022/01/09 09:59:03;;;;;;;14.90;1.75;;;5.30;99.90;;;;;;5018678;28;20044;-78
2022/01/09 10:01:32;;;;;;;11.02;2.03;;;5.20;99.90;;;;;;5011691;28;20041;-77
2022/01/09 10:04:03;;;;;;;13.32;1.90;;;5.30;99.90;;;;;;5019401;28;21435;-78
2022/01/09 10:06:33;;;;;;;;;;;5.20;99.90;;;;;;5011104;28;20061;-78
2022/01/09 10:09:14;;;;;;;15.23;1.55;;;5.20;99.90;;;;;;5048751;28;19921;-77
2022/01/09 10:11:45;;;;;;;11.20;1.60;;;5.20;99.90;;;;;;5019112;28;20114;-78
2022/01/09 10:14:18;;;;;;;9.70;1.73;;;5.20;99.90;;;;;;5031852;28;20131;-78
2022/01/09 10:17:13;;;;;;;13.05;1.67;;;5.20;99.90;;;;;;5014585;28;20103;-78
2022/01/09 10:19:48;;;;;;;14.98;1.70;;;5.20;99.90;;;;;;5007761;28;20730;-78
2022/01/09 10:22:39;;;;;;;10.90;1.77;;;5.20;99.90;;;;;;5049187;28;20128;-79
2022/01/09 10:25:21;;;;;;;;;;;5.20;99.90;;;;;;5000092;28;20387;-77
2022/01/09 10:27:48;;;;;;;11.37;1.77;;;5.20;99.90;;;;;;5018193;28;19955;-78
2022/01/09 10:30:14;;;;;;;13.30;1.80;;;5.20;99.90;;;;;;5018873;28;20045;-78
2022/01/09 10:32:41;;;;;;;13.00;2.05;;;5.20;99.90;;;;;;5017543;28;20124;-77
2022/01/09 10:35:18;;;;;;;12.07;2.08;;;5.20;99.90;;;;;;5000628;28;20044;-78
2022/01/09 10:37:47;;;;;;;11.07;1.67;;;5.30;99.90;;;;;;5020412;28;20067;-78
2022/01/09 10:40:29;;;;;;;16.83;2.30;;;5.30;99.90;;;;;;5015971;28;20041;-78
2022/01/09 10:43:02;;;;;;;;;;;5.30;99.90;;;;;;5018457;28;20056;-78
2022/01/09 10:45:29;;;;;;;11.43;1.40;;;5.30;99.90;;;;;;5002665;28;19924;-78
2022/01/09 10:48:05;;;;;;;17.35;2.45;;;5.30;99.90;;;;;;4999687;28;20140;-78
2022/01/09 10:50:35;;;;;;;14.07;2.03;;;5.30;99.90;;;;;;5011462;28;20047;-77
2022/01/09 10:53:18;;;;;;;18.50;2.05;;;5.40;99.90;;;;;;5028410;28;20510;-77
2022/01/09 10:56:11;;;;;;;13.05;1.92;;;5.40;99.90;;;;;;5014312;28;20053;-77
2022/01/09 10:58:44;;;;;;;12.13;1.65;;;5.40;99.90;;;;;;5030420;28;20088;-76
2022/01/09 11:01:27;;;;;;;11.88;1.83;;;5.40;99.90;;;;;;5034286;28;20056;-77
2022/01/09 11:03:55;;;;;;;17.30;2.28;;;5.50;99.90;;;;;;5019940;28;20466;-77
2022/01/09 11:06:22;;;;;;;17.17;2.08;;;5.50;99.90;;;;;;5002465;28;20118;-77
2022/01/09 11:08:48;;;;;;;11.93;1.80;;;5.50;99.90;;;;;;5033377;28;20059;-77
2022/01/09 11:13:49;;;;;;;11.10;1.50;;;5.70;99.90;;;;;;5021492;28;20060;-77
2022/01/09 11:19:00;;;;;;;9.65;1.60;;;5.70;99.90;;;;;;5021097;28;20070;-76
2022/01/09 11:21:26;;;;;;;17.15;1.65;;;5.80;99.90;;;;;;5021164;28;20037;-77
2022/01/09 11:24:30;;;;;;;14.88;2.28;;;5.80;99.90;;;;;;5019165;28;20096;-77
2022/01/09 11:27:16;;;;;;;13.05;1.40;;;5.90;99.90;;;;;;5002887;28;20045;-77
2022/01/09 11:30:03;;;;;;;12.23;1.80;;;6.00;99.90;;;;;;5018993;28;20048;-77
2022/01/09 11:32:44;;;;;;;13.88;1.63;;;6.10;99.90;;;;;;5019762;28;20124;-77
2022/01/09 11:35:12;;;;;;;18.33;2.45;;;6.20;99.90;;;;;;5014258;28;20051;-77
2022/01/09 11:37:56;;;;;;;13.05;2.13;;;6.20;99.90;;;;;;5015026;28;20156;-77
2022/01/09 11:40:31;;;;;;;15.90;2.92;;;6.30;99.90;;;;;;5014076;28;20037;-77
2022/01/09 11:43:03;;;;;;;17.25;2.03;;;6.40;99.90;;;;;;4998557;28;20123;-77
2022/01/09 11:45:45;;;;;;;16.38;1.83;;;6.60;99.90;;;;;;5015208;28;20445;-77
2022/01/09 11:48:12;;;;;;;19.08;1.98;;;6.70;99.90;;;;;;5019166;28;20178;-77
2022/01/09 11:51:07;;;;;;;14.88;1.83;;;6.70;99.90;;;;;;5022628;28;20045;-77
2022/01/09 11:53:55;;;;;;;14.02;1.73;;;6.80;99.90;;;;;;5002345;28;20146;-76
2022/01/09 11:56:55;;;;;;;10.00;1.83;;;6.80;99.90;;;;;;5018686;28;20048;-76
2022/01/09 11:59:31;;;;;;;11.48;1.92;;;6.90;99.90;;;;;;5007885;28;20047;-76
2022/01/09 12:02:01;;;;;;;9.43;1.60;;;6.90;99.90;;;;;;5010960;28;20050;-76
2022/01/09 12:04:35;;;;;;;13.50;2.08;;;6.90;99.90;;;;;;5007801;28;20051;-76
2022/01/09 12:07:04;;;;;;;15.80;3.53;;;6.90;99.90;;;;;;4989417;28;20369;-76
2022/01/09 12:09:47;;;;;;;14.38;2.75;;;6.90;99.90;;;;;;5010935;28;20136;-76
2022/01/09 12:12:19;;;;;;;16.48;2.20;;;7.00;99.90;;;;;;5010283;28;20084;-75
2022/01/09 12:14:53;;;;;;;15.27;2.10;;;7.00;99.90;;;;;;5044700;28;20160;-75
2022/01/09 12:17:31;;;;;;;17.48;2.28;;;7.00;99.90;;;;;;5000167;28;20042;-76
2022/01/09 12:20:23;;;;;;;15.35;1.70;;;7.00;99.90;;;;;;4976160;28;20056;-75
2022/01/09 12:23:04;;;;;;;13.95;2.22;;;7.00;99.90;;;;;;5028008;28;20046;-75
2022/01/09 12:25:33;;;;;;;12.38;1.83;;;7.00;99.90;;;;;;5043650;28;20081;-75
2022/01/09 12:28:14;;;;;;;13.75;1.90;;;7.00;99.90;;;;;;4979087;28;20034;-75
2022/01/09 12:30:41;;;;;;;15.65;2.15;;;7.00;99.90;;;;;;4991421;28;20045;-75
2022/01/09 12:33:15;;;;;;;12.35;1.80;;;7.00;99.90;;;;;;5027792;28;20107;-77
2022/01/09 12:35:48;;;;;;;15.38;1.95;;;7.00;99.90;;;;;;5025336;28;20124;-75
2022/01/09 12:38:27;;;;;;;13.43;1.83;;;7.00;99.90;;;;;;4993168;28;20423;-75
2022/01/09 12:41:01;;;;;;;10.65;1.20;;;6.90;99.90;;;;;;4995630;28;20042;-75
2022/01/09 12:43:28;;;;;;;15.32;2.28;;;6.90;99.90;;;;;;5008246;28;20457;-75
2022/01/09 12:45:54;;;;;;;11.68;1.67;;;6.90;99.90;;;;;;4977921;28;20054;-75
2022/01/09 12:48:25;;;;;;;11.60;2.03;;;7.00;99.90;;;;;;5029613;28;20041;-75
2022/01/09 12:50:51;;;;;;;9.98;1.60;;;7.00;99.90;;;;;;4983096;28;20076;-75
2022/01/09 12:53:29;;;;;;;11.65;1.50;;;7.10;99.90;;;;;;4994157;28;20077;-75
2022/01/09 12:56:07;;;;;;;12.32;1.42;;;7.10;99.90;;;;;;5011083;28;20513;-75
2022/01/09 12:58:51;;;;;;;11.50;1.92;;;7.10;99.90;;;;;;5011666;28;20136;-75
2022/01/09 13:01:23;;;;;;;16.67;1.83;;;7.10;99.90;;;;;;4998695;28;20308;-75
2022/01/09 13:03:54;;;;;;;9.88;1.52;;;7.10;99.90;;;;;;5028742;28;20099;-75